Clarksville, Missouri
Current Conditions -  °F | °C
As of 7:15 PM on Tuesday 27 Jan 2015 (Local Time) from KPPQ Reporting Station
Scattered Clouds Scattered Clouds  
Wind Chill: -3°   Ceiling: Unl
Heat Index: -1°   Visibility: 7mi
Dew Point: -3°   Wind: 5mph
Humidity: 88%   Direction: 90°E
Pressure: 30.23"   Gusts: NA
Location:  39.37°N, 90.91°W
Report Text: KPPQ 280115Z AUTO 09004KT 7SM SCT012 M01/M02 A3023 RMK AO2 T10071025
Loading
Personal Weather Stations






























Interactive Weather Map New forecast layout! Learn more

10-Day Weather Forecast

Advertisements
Track Severe Weather on mobile